CheckWX is a tool to help pilots better visualize weather data.  It is not intended as a substitute for an official pre-flight weather briefing.

23:29:39 UTC

FKKD METAR
Douala International Airport
Douala, Cameroon
Current

30 mins ago

FKKD 222300Z 00000KT 8000 SCT016 FEW020CB 28/27 Q1010 NOSIG
Observed
Jan-22 @ 23:00 UTC
Visibility
8,000 meters
Flight Rules
MVFR
Cloud Levels
  • Scattered at 1,600' AGL
  • Few at 2,000' AGL
Temperature
28°C / 82°F
Dewpoint
27°C / 81°F
Heat Index
34°C / 93°F
Humidity
94%
Altimeter
29.82" Hg
Pressure
1009.92 hPa
Previous

1 hour ago

FKKD 222200Z 00000KT 8000 BKN016 FEW020CB 29/27 Q1010 NOSIG
Observed
Jan-22 @ 22:00 UTC
Visibility
8,000 meters
Flight Rules
MVFR
Cloud Levels
  • Broken at 1,600' AGL
  • Few at 2,000' AGL
Temperature
29°C / 84°F
Dewpoint
27°C / 81°F
Heat Index
37°C / 98°F
Humidity
89%
Altimeter
29.82" Hg
Pressure
1009.92 hPa
Previous

2 hours ago

FKKD 222100Z 00000KT 8000 BKN016 FEW020CB 29/27 Q1010 NOSIG
Observed
Jan-22 @ 21:00 UTC
Visibility
8,000 meters
Flight Rules
MVFR
Cloud Levels
  • Broken at 1,600' AGL
  • Few at 2,000' AGL
Temperature
29°C / 84°F
Dewpoint
27°C / 81°F
Heat Index
37°C / 98°F
Humidity
89%
Altimeter
29.82" Hg
Pressure
1009.92 hPa